Airport ID:KRIF
Update Time (UTC):17/04/2024 09:10
Wind Speed (Knots):0
Wind Direction (Magnetic):90
Temperature (°C):4
Dew Point (°C):-1
Humidity (%):67
Altimeter (inHg):30.02
Density Altitude (Feet):
Visibility:10+
Clouds (Hundreds of feet):\\\\
Present Weather:
METAR:METAR KRIF 170910Z AUTO 00000KT 10SM 04/M01 A3002 RMK A01

The data displayed is for advisory purposes only and is not to be used for flight planning or operations.